KSGU

St George Regional Airport

St George, Utah, USA
METAR KSGU 171756Z AUTO 00000KT 10SM FEW065 16/03 A3025 RMK AO2 SLP230 T01610028 10167 20106 50001
Observed Flight Rules
Oct-17 @ 17:56 UTC (24 minutes ago) Visual Flight Rules
Visibility Clouds
10 miles
  • Few at 6,500' AGL
Temperatures Readings
Current 16°C / 61°F
Dewpoint 3°C / 37°F
Humidity 42%
Altimeter 30.25" Hg
Pressure 1023 hPa
Elevation 896
METAR KSGU 171756Z AUTO 00000KT 10SM FEW065 16/03 A3025 RMK AO2 SLP230 T01610028 10167 20106 50001
Observed Flight Rules
Oct-17 @ 17:56 UTC
(24 minutes ago)
VFR
Clouds
  • Few at 6,500' AGL
Temperature Dewpoint
16°C / 61°F 3°C / 37°F
Humidity Altimeter Pressure
42% 30.25" Hg 1023 hPa